Silver Lake, Michigan
Current Conditions -  °F | °C
As of 7:14 PM on Wednesday 26 Nov 2014 (Local Time) from KLDM Reporting Station
Haze Haze  
Wind Chill: -2°   Ceiling: 2400
Heat Index: -2°   Visibility: 5mi
Dew Point: -2°   Wind: 0mph
Humidity: 94%   Direction: NA
Pressure: 30.14"   Gusts: NA
Location:  43.6851°N, 86.4584°W
Report Text: KLDM 270014Z AUTO 00000KT 5SM BR BKN024 OVC034 M01/M02 A3014 RMK AO2 T10151024
Loading
Personal Weather Stations






























Interactive Weather Map New forecast layout! Learn more

10-Day Weather Forecast

Advertisements
Track Severe Weather on mobile